Curtis Field
KBBD : now visible

Airfield :











YOU CAN JOIN US ON...

 
LOGIN :

Register | Disclaimer

   EN    FR    IT 

 









Legend :    VFR   Marginal VFR   IFR   Intensive IFR   Very Intensive IFR
Visi :
Ceiling :
>= 8 km
>= 3000ft
5 to 8 km
1000 to 3000 ft
1500m to 5 km
500 to 1000 ft
800 to 1500m
200 to 500 ft
< 800m
< 200 ft
Symbols :   Thunderstorms  Fog  Heavy snow  Heavy precipitations  Wind > 20 kt






- Airport Elevation : 1827 ft


KBBD - Curtis Field

CURRENT METAR :
  • 161135Z AUTO 15005KT 10SM OVC003 14/14 A2979 RMK AO2

EXPIRED METARs :
  • 161115Z AUTO 14006KT 10SM OVC003 14/14 A2979 RMK AO2
  • 161055Z AUTO 12007KT 4SM BR OVC002 14/14 A2979 RMK AO2 P0001
  • 161035Z AUTO 13004KT 3SM BR OVC002 14/14 A2980 RMK AO2
  • 161015Z AUTO 14007KT 1 1/2SM BR OVC003 14/14 A2980 RMK AO2
  • 160955Z AUTO 13005KT 1 3/4SM VCTS BR OVC003 14/14 A2982 RMK AO2 LTG DSNT NW-NE
  • 160935Z AUTO 12007KT 1 1/4SM BR OVC003 14/14 A2981 RMK AO2
  • 160915Z AUTO 10006KT 1 1/2SM BR OVC003 14/14 A2981 RMK AO2
  • 160855Z AUTO 11006KT 1 1/4SM BR OVC002 14/14 A2981 RMK AO2

TAF KBBD
Valid from the 16 at 12:00 until the 17 at 12:00 UTC


161128Z 1612/1712 16011KT P6SM OVC003
TEMPO 1612/1614 3SM BR OVC002
FM161600 22009KT P6SM BKN008
FM161800 26010KT P6SM BKN015
FM162200 34011G18KT P6SM OVC012
FM170000 36017G23KT P6SM BKN025
KZHU FIR / North America



MET'MAP, your aeronautical weather chart ! - Copyright ORBIFLY December 2007 - Disclaimer

ORBIFLY MET'MAP TEAM :

Programming & Development : Alexandra Zaïnal
Concept & original design : Baudouin d'Aumeries
Assistance for programming : Marc-Olivier Méhu
Technical & hardware support : Manuel Goepfert

Contact : metmap@orbifly.com




SOURCES & CREDITS :

   NOAA       Earth
Advisory